createdAt,value
2023-02-28T00:03:57.295Z,102082.50
2023-02-28T00:08:54.517Z,102154.38
2023-02-28T00:13:52.732Z,102089.44
2023-02-28T00:18:50.831Z,102212.53
2023-02-28T00:23:48.047Z,102196.03
2023-02-28T00:28:45.188Z,102204.69
2023-02-28T00:33:43.076Z,102110.25
2023-02-28T00:38:41.931Z,102227.22
2023-02-28T00:43:43.099Z,102197.75
2023-02-28T00:48:42.599Z,102193.44
2023-02-28T00:53:39.736Z,102194.34
2023-02-28T00:58:37.329Z,102112.03
2023-02-28T01:03:36.660Z,102112.88
2023-02-28T01:08:39.301Z,102126.75
2023-02-28T01:13:36.670Z,102077.41
2023-02-28T01:18:33.764Z,102190.91
2023-02-28T01:23:34.632Z,102233.38
2023-02-28T01:28:33.176Z,102255.09
2023-02-28T01:33:34.779Z,102182.31
2023-02-28T01:38:32.245Z,102207.41
2023-02-28T01:43:33.134Z,102129.41
2023-02-28T01:48:36.078Z,102230.88
2023-02-28T01:53:36.463Z,102220.44
2023-02-28T01:58:40.831Z,102197.91
2023-02-28T02:08:48.818Z,102209.16
2023-02-28T02:14:29.804Z,102212.59
2023-02-28T02:20:25.245Z,102203.06
2023-02-28T02:25:37.257Z,102165.84
2023-02-28T02:30:57.166Z,102252.53
2023-02-28T02:36:00.642Z,102238.69
2023-02-28T02:41:19.865Z,102194.44
2023-02-28T02:46:40.113Z,102151.13
2023-02-28T02:51:44.125Z,102162.34
2023-02-28T02:56:52.038Z,102159.75
2023-02-28T03:02:00.109Z,102253.44
2023-02-28T03:07:26.716Z,102275.13
2023-02-28T03:13:21.683Z,102174.47
2023-02-28T03:18:47.049Z,102219.59
2023-02-28T03:38:27.121Z,102323.72
2023-02-28T03:43:09.744Z,102266.44
2023-02-28T03:49:25.248Z,102312.44
2023-02-28T04:54:06.060Z,102203.97
2023-02-28T05:05:46.207Z,102236.06
2023-02-28T05:10:59.107Z,102198.75
2023-02-28T05:16:14.879Z,102357.53
2023-02-28T05:55:47.747Z,102370.56
2023-02-28T06:02:00.519Z,102403.56
2023-02-28T06:19:59.329Z,102387.88
2023-02-28T06:25:24.294Z,102413.97
2023-02-28T06:30:29.207Z,102328.88
2023-02-28T06:35:43.883Z,102380.13
2023-02-28T06:40:47.774Z,102292.44
2023-02-28T06:46:00.704Z,102389.66
2023-02-28T06:51:14.627Z,102288.97
2023-02-28T06:56:56.426Z,102267.25
2023-02-28T07:02:42.860Z,102268.16
2023-02-28T07:09:21.294Z,102397.50
2023-02-28T07:26:41.972Z,102340.19
2023-02-28T07:32:31.986Z,102388.81
2023-02-28T07:37:50.934Z,102334.97
2023-02-28T07:48:58.825Z,102317.66
2023-02-28T07:55:03.413Z,102269.03
2023-02-28T08:00:59.990Z,102262.09
2023-02-28T08:06:08.115Z,102284.66
2023-02-28T08:11:45.779Z,102382.72
2023-02-28T08:16:56.460Z,102377.53
2023-02-28T08:22:44.810Z,102432.22
2023-02-28T08:28:30.170Z,102289.84
2023-02-28T08:33:50.598Z,102377.50
2023-02-28T08:38:57.382Z,102434.81
2023-02-28T08:44:26.238Z,102433.06
2023-02-28T08:49:28.444Z,102367.97
2023-02-28T08:54:44.864Z,102311.56
2023-02-28T08:59:49.376Z,102424.38
2023-02-28T09:05:16.130Z,102303.72
2023-02-28T09:10:37.210Z,102371.41
2023-02-28T09:16:07.172Z,102277.69
2023-02-28T09:21:39.666Z,102310.63
2023-02-28T09:32:21.599Z,102342.72
2023-02-28T09:37:51.336Z,102387.84
2023-02-28T09:43:20.172Z,102429.50
2023-02-28T09:48:40.780Z,102403.41
2023-02-28T09:54:12.531Z,102368.66
2023-02-28T10:00:00.718Z,102265.44
2023-02-28T10:05:12.112Z,102344.34
2023-02-28T10:16:40.185Z,102325.25
2023-02-28T10:22:50.291Z,102379.91
2023-02-28T10:35:08.436Z,102254.09
2023-02-28T10:53:44.726Z,102328.63
2023-02-28T10:59:55.090Z,102343.28
2023-02-28T11:11:40.126Z,102280.94
2023-02-28T11:17:06.951Z,102376.31
2023-02-28T11:22:46.941Z,102318.19
2023-02-28T11:29:16.372Z,102350.19
2023-02-28T11:54:58.202Z,102312.84
2023-02-28T12:32:47.083Z,102258.28
2023-02-28T12:38:36.382Z,102217.59
2023-02-28T12:44:20.235Z,102255.72
2023-02-28T12:49:39.326Z,102306.00
2023-02-28T12:55:02.396Z,102286.00
2023-02-28T13:00:17.443Z,102237.38
2023-02-28T13:06:20.455Z,102324.03
2023-02-28T13:11:37.055Z,102262.34
2023-02-28T13:23:08.645Z,102239.81
2023-02-28T13:34:21.485Z,102166.13
2023-02-28T13:39:58.860Z,102304.72
2023-02-28T13:51:58.190Z,102194.69
2023-02-28T14:04:11.471Z,102179.84
2023-02-28T14:09:54.242Z,102211.13
2023-02-28T14:15:39.697Z,102213.72
2023-02-28T14:21:35.015Z,102257.84
2023-02-28T14:27:37.982Z,102170.44
2023-02-28T14:57:49.749Z,102178.94
2023-02-28T15:04:11.997Z,102295.88
2023-02-28T21:20:37.745Z,102257.50
2023-02-28T21:25:35.001Z,102247.91
2023-02-28T21:30:31.978Z,102295.56
2023-02-28T21:35:29.008Z,102310.31
2023-02-28T21:40:26.973Z,102234.00
2023-02-28T21:45:23.822Z,102253.09
2023-02-28T21:50:20.778Z,102242.69
2023-02-28T21:55:17.781Z,102267.72
2023-02-28T22:00:16.549Z,102265.16
2023-02-28T22:05:13.629Z,102152.47
2023-02-28T22:10:12.437Z,102277.22
2023-02-28T22:15:10.292Z,102194.97
2023-02-28T22:20:09.664Z,102265.19
2023-02-28T22:25:09.112Z,102197.53
2023-02-28T22:30:07.151Z,102275.59
2023-02-28T22:35:04.950Z,102190.63
2023-02-28T22:40:02.985Z,102285.91
2023-02-28T22:45:00.035Z,102264.25
2023-02-28T22:50:00.020Z,102204.47
2023-02-28T22:54:58.332Z,102290.25
2023-02-28T22:59:56.275Z,102293.72
2023-02-28T23:04:55.153Z,102284.19
2023-02-28T23:09:54.153Z,102283.38
2023-02-28T23:14:51.624Z,102227.88
2023-02-28T23:19:49.509Z,102281.59
2023-02-28T23:24:46.510Z,102241.72
2023-02-28T23:29:43.598Z,102288.47
2023-02-28T23:34:40.869Z,102252.09
2023-02-28T23:39:43.752Z,102286.72
2023-02-28T23:44:40.961Z,102256.41
2023-02-28T23:49:38.064Z,102207.94
2023-02-28T23:54:36.262Z,102285.03
2023-02-28T23:59:34.654Z,102271.22
